sensor_id;sensor_type;location;lat;lon;timestamp;temperature;humidity
35363;DHT22;21463;47.480;8.214;2022-10-16T00:00:20;21.10;60.10
35363;DHT22;21463;47.480;8.214;2022-10-16T00:01:27;21.10;60.10
35363;DHT22;21463;47.480;8.214;2022-10-16T00:02:30;21.10;60.10
35363;DHT22;21463;47.480;8.214;2022-10-16T00:03:34;21.10;60.10
35363;DHT22;21463;47.480;8.214;2022-10-16T00:04:42;21.10;60.10
35363;DHT22;21463;47.480;8.214;2022-10-16T00:05:49;21.10;60.10
35363;DHT22;21463;47.480;8.214;2022-10-16T00:06:55;21.10;60.10
35363;DHT22;21463;47.480;8.214;2022-10-16T00:08:00;21.10;60.00
35363;DHT22;21463;47.480;8.214;2022-10-16T00:09:07;21.10;60.10
35363;DHT22;21463;47.480;8.214;2022-10-16T00:10:11;21.20;60.10
35363;DHT22;21463;47.480;8.214;2022-10-16T00:11:19;21.10;60.00
35363;DHT22;21463;47.480;8.214;2022-10-16T00:12:24;21.10;60.10
35363;DHT22;21463;47.480;8.214;2022-10-16T00:13:28;21.10;60.10
35363;DHT22;21463;47.480;8.214;2022-10-16T00:14:32;21.10;60.00
35363;DHT22;21463;47.480;8.214;2022-10-16T00:15:36;21.10;60.00
35363;DHT22;21463;47.480;8.214;2022-10-16T00:16:41;21.10;60.00
35363;DHT22;21463;47.480;8.214;2022-10-16T00:17:47;21.10;60.00
35363;DHT22;21463;47.480;8.214;2022-10-16T00:19:12;21.10;60.00
35363;DHT22;21463;47.480;8.214;2022-10-16T00:20:24;21.10;60.00
35363;DHT22;21463;47.480;8.214;2022-10-16T00:22:00;21.10;60.00
35363;DHT22;21463;47.480;8.214;2022-10-16T00:23:21;21.10;60.00
35363;DHT22;21463;47.480;8.214;2022-10-16T00:24:28;21.20;60.00
35363;DHT22;21463;47.480;8.214;2022-10-16T00:25:31;21.10;60.00
35363;DHT22;21463;47.480;8.214;2022-10-16T00:26:41;21.10;60.00
35363;DHT22;21463;47.480;8.214;2022-10-16T00:27:45;21.10;60.00
35363;DHT22;21463;47.480;8.214;2022-10-16T00:28:52;21.10;60.00
35363;DHT22;21463;47.480;8.214;2022-10-16T00:29:57;21.10;60.00
35363;DHT22;21463;47.480;8.214;2022-10-16T00:31:08;21.10;59.90
35363;DHT22;21463;47.480;8.214;2022-10-16T00:32:14;21.10;60.00
35363;DHT22;21463;47.480;8.214;2022-10-16T00:33:18;21.20;60.00
35363;DHT22;21463;47.480;8.214;2022-10-16T00:34:21;21.10;60.00
35363;DHT22;21463;47.480;8.214;2022-10-16T00:35:24;21.10;59.90
35363;DHT22;21463;47.480;8.214;2022-10-16T00:36:26;21.10;59.90
35363;DHT22;21463;47.480;8.214;2022-10-16T00:37:30;21.10;59.90
35363;DHT22;21463;47.480;8.214;2022-10-16T00:38:34;21.10;59.90
35363;DHT22;21463;47.480;8.214;2022-10-16T00:39:44;21.10;59.90
35363;DHT22;21463;47.480;8.214;2022-10-16T00:40:48;21.20;60.00
35363;DHT22;21463;47.480;8.214;2022-10-16T00:41:56;21.10;59.90
35363;DHT22;21463;47.480;8.214;2022-10-16T00:42:59;21.10;59.90
35363;DHT22;21463;47.480;8.214;2022-10-16T00:46:19;21.10;59.90
35363;DHT22;21463;47.480;8.214;2022-10-16T00:48:35;21.10;59.90
35363;DHT22;21463;47.480;8.214;2022-10-16T00:49:39;21.10;59.90
35363;DHT22;21463;47.480;8.214;2022-10-16T00:50:44;21.10;59.80
35363;DHT22;21463;47.480;8.214;2022-10-16T00:51:52;21.10;59.90
35363;DHT22;21463;47.480;8.214;2022-10-16T00:53:01;21.10;59.80
35363;DHT22;21463;47.480;8.214;2022-10-16T00:54:19;21.10;59.90
35363;DHT22;21463;47.480;8.214;2022-10-16T00:55:24;21.10;59.80
35363;DHT22;21463;47.480;8.214;2022-10-16T00:56:31;21.10;59.80
35363;DHT22;21463;47.480;8.214;2022-10-16T00:57:37;21.10;59.80
35363;DHT22;21463;47.480;8.214;2022-10-16T00:58:43;21.10;59.80
35363;DHT22;21463;47.480;8.214;2022-10-16T00:59:51;21.10;59.80
35363;DHT22;21463;47.480;8.214;2022-10-16T01:00:56;21.10;59.80
35363;DHT22;21463;47.480;8.214;2022-10-16T01:01:59;21.10;60.30
35363;DHT22;21463;47.480;8.214;2022-10-16T01:04:46;21.10;59.80
35363;DHT22;21463;47.480;8.214;2022-10-16T01:06:21;21.10;59.80
35363;DHT22;21463;47.480;8.214;2022-10-16T01:09:20;21.10;59.80
35363;DHT22;21463;47.480;8.214;2022-10-16T01:10:39;21.20;59.90
35363;DHT22;21463;47.480;8.214;2022-10-16T01:12:15;21.10;60.30
35363;DHT22;21463;47.480;8.214;2022-10-16T01:13:48;21.10;59.70
35363;DHT22;21463;47.480;8.214;2022-10-16T01:15:10;21.10;59.70
35363;DHT22;21463;47.480;8.214;2022-10-16T01:16:34;21.10;59.80
35363;DHT22;21463;47.480;8.214;2022-10-16T01:17:45;21.10;59.80
35363;DHT22;21463;47.480;8.214;2022-10-16T01:18:56;21.10;59.70
35363;DHT22;21463;47.480;8.214;2022-10-16T01:20:24;21.10;59.80
35363;DHT22;21463;47.480;8.214;2022-10-16T01:21:36;21.10;59.80
35363;DHT22;21463;47.480;8.214;2022-10-16T01:24:09;21.10;59.80
35363;DHT22;21463;47.480;8.214;2022-10-16T01:26:06;21.10;59.70
35363;DHT22;21463;47.480;8.214;2022-10-16T01:27:14;21.10;59.70
35363;DHT22;21463;47.480;8.214;2022-10-16T01:28:22;21.10;59.80
35363;DHT22;21463;47.480;8.214;2022-10-16T01:30:58;21.10;59.70
35363;DHT22;21463;47.480;8.214;2022-10-16T01:32:19;21.10;59.70
35363;DHT22;21463;47.480;8.214;2022-10-16T01:33:30;21.10;59.70
35363;DHT22;21463;47.480;8.214;2022-10-16T01:34:54;21.20;59.70
35363;DHT22;21463;47.480;8.214;2022-10-16T01:36:01;21.10;59.70
35363;DHT22;21463;47.480;8.214;2022-10-16T01:37:11;21.10;59.70
35363;DHT22;21463;47.480;8.214;2022-10-16T01:38:36;21.10;59.70
35363;DHT22;21463;47.480;8.214;2022-10-16T01:39:42;21.10;59.70
35363;DHT22;21463;47.480;8.214;2022-10-16T01:40:53;21.10;59.70
35363;DHT22;21463;47.480;8.214;2022-10-16T01:42:22;21.10;59.60
35363;DHT22;21463;47.480;8.214;2022-10-16T01:43:43;21.10;59.60
35363;DHT22;21463;47.480;8.214;2022-10-16T01:44:51;21.10;59.70
35363;DHT22;21463;47.480;8.214;2022-10-16T01:45:56;21.10;59.60
35363;DHT22;21463;47.480;8.214;2022-10-16T01:47:02;21.10;59.60
35363;DHT22;21463;47.480;8.214;2022-10-16T01:48:06;21.10;59.60
35363;DHT22;21463;47.480;8.214;2022-10-16T01:49:29;21.10;59.60
35363;DHT22;21463;47.480;8.214;2022-10-16T01:50:41;21.10;59.60
35363;DHT22;21463;47.480;8.214;2022-10-16T01:51:53;21.10;59.60
35363;DHT22;21463;47.480;8.214;2022-10-16T01:52:57;21.10;59.60
35363;DHT22;21463;47.480;8.214;2022-10-16T01:54:05;21.10;59.60
35363;DHT22;21463;47.480;8.214;2022-10-16T01:55:17;21.10;59.60
35363;DHT22;21463;47.480;8.214;2022-10-16T01:56:24;21.20;59.70
35363;DHT22;21463;47.480;8.214;2022-10-16T01:57:29;21.10;59.60
35363;DHT22;21463;47.480;8.214;2022-10-16T01:58:50;21.10;59.60
35363;DHT22;21463;47.480;8.214;2022-10-16T02:00:02;21.10;59.60
35363;DHT22;21463;47.480;8.214;2022-10-16T02:01:15;21.10;59.60
35363;DHT22;21463;47.480;8.214;2022-10-16T02:02:21;21.10;59.60
35363;DHT22;21463;47.480;8.214;2022-10-16T02:03:27;21.20;59.70
35363;DHT22;21463;47.480;8.214;2022-10-16T02:04:45;21.10;59.60
35363;DHT22;21463;47.480;8.214;2022-10-16T02:05:55;21.10;59.60
35363;DHT22;21463;47.480;8.214;2022-10-16T02:07:02;21.10;59.60
35363;DHT22;21463;47.480;8.214;2022-10-16T02:08:08;21.10;59.60
35363;DHT22;21463;47.480;8.214;2022-10-16T02:09:37;21.10;59.60
35363;DHT22;21463;47.480;8.214;2022-10-16T02:10:41;21.10;59.60
35363;DHT22;21463;47.480;8.214;2022-10-16T02:11:45;21.10;59.60
35363;DHT22;21463;47.480;8.214;2022-10-16T02:13:15;21.10;59.60
35363;DHT22;21463;47.480;8.214;2022-10-16T02:14:21;21.10;59.60
35363;DHT22;21463;47.480;8.214;2022-10-16T02:15:27;21.10;59.60
35363;DHT22;21463;47.480;8.214;2022-10-16T02:16:44;21.10;59.60
35363;DHT22;21463;47.480;8.214;2022-10-16T02:17:48;21.10;59.60
35363;DHT22;21463;47.480;8.214;2022-10-16T02:18:56;21.10;59.60
35363;DHT22;21463;47.480;8.214;2022-10-16T02:20:00;21.10;59.60
35363;DHT22;21463;47.480;8.214;2022-10-16T02:22:58;21.10;59.50
35363;DHT22;21463;47.480;8.214;2022-10-16T02:26:35;21.10;59.60
35363;DHT22;21463;47.480;8.214;2022-10-16T02:28:03;21.10;59.60
35363;DHT22;21463;47.480;8.214;2022-10-16T02:29:14;21.10;59.50
35363;DHT22;21463;47.480;8.214;2022-10-16T02:30:33;21.10;59.60
35363;DHT22;21463;47.480;8.214;2022-10-16T02:32:17;21.10;59.60
35363;DHT22;21463;47.480;8.214;2022-10-16T02:33:23;21.10;59.60
35363;DHT22;21463;47.480;8.214;2022-10-16T02:34:28;21.10;59.50
35363;DHT22;21463;47.480;8.214;2022-10-16T02:35:36;21.10;59.50
35363;DHT22;21463;47.480;8.214;2022-10-16T02:36:43;21.10;59.50
35363;DHT22;21463;47.480;8.214;2022-10-16T02:37:50;21.20;59.60
35363;DHT22;21463;47.480;8.214;2022-10-16T02:38:54;21.10;59.50
35363;DHT22;21463;47.480;8.214;2022-10-16T02:40:01;21.10;59.50
35363;DHT22;21463;47.480;8.214;2022-10-16T02:41:06;21.10;59.50
35363;DHT22;21463;47.480;8.214;2022-10-16T02:42:12;21.10;59.50
35363;DHT22;21463;47.480;8.214;2022-10-16T02:43:21;21.10;59.50
35363;DHT22;21463;47.480;8.214;2022-10-16T02:44:24;21.10;59.50
35363;DHT22;21463;47.480;8.214;2022-10-16T02:45:34;21.20;59.50
35363;DHT22;21463;47.480;8.214;2022-10-16T02:46:44;21.10;59.50
35363;DHT22;21463;47.480;8.214;2022-10-16T02:47:47;21.20;59.60
35363;DHT22;21463;47.480;8.214;2022-10-16T02:49:13;21.10;59.50
35363;DHT22;21463;47.480;8.214;2022-10-16T02:50:20;21.10;59.50
35363;DHT22;21463;47.480;8.214;2022-10-16T02:51:24;21.20;59.50
35363;DHT22;21463;47.480;8.214;2022-10-16T02:52:31;21.10;59.50
35363;DHT22;21463;47.480;8.214;2022-10-16T02:53:35;21.10;59.50
35363;DHT22;21463;47.480;8.214;2022-10-16T02:54:43;21.10;59.50
35363;DHT22;21463;47.480;8.214;2022-10-16T02:55:47;21.10;59.50
35363;DHT22;21463;47.480;8.214;2022-10-16T02:56:50;21.10;59.50
35363;DHT22;21463;47.480;8.214;2022-10-16T02:57:54;21.10;59.50
35363;DHT22;21463;47.480;8.214;2022-10-16T02:59:08;21.10;59.50
35363;DHT22;21463;47.480;8.214;2022-10-16T03:00:14;21.10;59.50
35363;DHT22;21463;47.480;8.214;2022-10-16T03:01:18;21.10;59.40
35363;DHT22;21463;47.480;8.214;2022-10-16T03:02:22;21.10;59.40
35363;DHT22;21463;47.480;8.214;2022-10-16T03:03:29;21.10;59.40
35363;DHT22;21463;47.480;8.214;2022-10-16T03:04:33;21.10;59.50
35363;DHT22;21463;47.480;8.214;2022-10-16T03:05:36;21.10;59.40
35363;DHT22;21463;47.480;8.214;2022-10-16T03:06:43;21.10;59.50
35363;DHT22;21463;47.480;8.214;2022-10-16T03:08:10;21.10;59.40
35363;DHT22;21463;47.480;8.214;2022-10-16T03:09:14;21.10;59.40
35363;DHT22;21463;47.480;8.214;2022-10-16T03:10:18;21.10;59.50
35363;DHT22;21463;47.480;8.214;2022-10-16T03:11:23;21.10;59.40
35363;DHT22;21463;47.480;8.214;2022-10-16T03:12:28;21.10;59.40
35363;DHT22;21463;47.480;8.214;2022-10-16T03:13:33;21.10;59.40
35363;DHT22;21463;47.480;8.214;2022-10-16T03:14:37;21.10;59.50
35363;DHT22;21463;47.480;8.214;2022-10-16T03:15:43;21.10;59.40
35363;DHT22;21463;47.480;8.214;2022-10-16T03:17:08;21.20;59.50
35363;DHT22;21463;47.480;8.214;2022-10-16T03:18:12;21.10;59.40
35363;DHT22;21463;47.480;8.214;2022-10-16T03:19:17;21.10;59.40
35363;DHT22;21463;47.480;8.214;2022-10-16T03:20:24;21.10;59.40
35363;DHT22;21463;47.480;8.214;2022-10-16T03:21:26;21.10;59.40
35363;DHT22;21463;47.480;8.214;2022-10-16T03:22:35;21.10;59.40
35363;DHT22;21463;47.480;8.214;2022-10-16T03:23:39;21.20;59.40
35363;DHT22;21463;47.480;8.214;2022-10-16T03:24:44;21.10;59.40
35363;DHT22;21463;47.480;8.214;2022-10-16T03:25:49;21.10;59.40
35363;DHT22;21463;47.480;8.214;2022-10-16T03:26:54;21.10;59.40
35363;DHT22;21463;47.480;8.214;2022-10-16T03:27:57;21.20;59.50
35363;DHT22;21463;47.480;8.214;2022-10-16T03:29:20;21.10;59.40
35363;DHT22;21463;47.480;8.214;2022-10-16T03:30:26;21.10;59.40
35363;DHT22;21463;47.480;8.214;2022-10-16T03:31:31;21.10;59.40
35363;DHT22;21463;47.480;8.214;2022-10-16T03:32:38;21.10;59.40
35363;DHT22;21463;47.480;8.214;2022-10-16T03:33:41;21.10;59.40
35363;DHT22;21463;47.480;8.214;2022-10-16T03:35:06;21.10;59.40
35363;DHT22;21463;47.480;8.214;2022-10-16T03:36:09;21.10;59.40
35363;DHT22;21463;47.480;8.214;2022-10-16T03:37:15;21.10;59.40
35363;DHT22;21463;47.480;8.214;2022-10-16T03:38:21;21.10;59.40
35363;DHT22;21463;47.480;8.214;2022-10-16T03:39:26;21.10;59.40
35363;DHT22;21463;47.480;8.214;2022-10-16T03:40:31;21.10;59.40
35363;DHT22;21463;47.480;8.214;2022-10-16T03:41:37;21.10;59.30
35363;DHT22;21463;47.480;8.214;2022-10-16T03:42:53;21.10;59.40
35363;DHT22;21463;47.480;8.214;2022-10-16T03:44:04;21.10;59.40
35363;DHT22;21463;47.480;8.214;2022-10-16T03:45:08;21.10;59.40
35363;DHT22;21463;47.480;8.214;2022-10-16T03:46:13;21.10;59.40
35363;DHT22;21463;47.480;8.214;2022-10-16T03:47:18;21.10;59.40
35363;DHT22;21463;47.480;8.214;2022-10-16T03:48:26;21.10;59.30
35363;DHT22;21463;47.480;8.214;2022-10-16T03:49:29;21.10;59.30
35363;DHT22;21463;47.480;8.214;2022-10-16T03:50:32;21.10;59.30
35363;DHT22;21463;47.480;8.214;2022-10-16T03:51:40;21.10;59.30
35363;DHT22;21463;47.480;8.214;2022-10-16T03:52:47;21.10;59.40
35363;DHT22;21463;47.480;8.214;2022-10-16T03:53:51;21.10;59.30
35363;DHT22;21463;47.480;8.214;2022-10-16T03:54:59;21.10;59.40
35363;DHT22;21463;47.480;8.214;2022-10-16T03:56:02;21.10;59.40
35363;DHT22;21463;47.480;8.214;2022-10-16T03:57:29;21.10;59.40
35363;DHT22;21463;47.480;8.214;2022-10-16T03:58:55;21.10;59.30
35363;DHT22;21463;47.480;8.214;2022-10-16T03:59:58;21.10;59.30
35363;DHT22;21463;47.480;8.214;2022-10-16T04:01:15;21.10;59.30
35363;DHT22;21463;47.480;8.214;2022-10-16T04:02:21;21.10;59.30
35363;DHT22;21463;47.480;8.214;2022-10-16T04:03:28;21.10;59.30
35363;DHT22;21463;47.480;8.214;2022-10-16T04:04:33;21.10;59.30
35363;DHT22;21463;47.480;8.214;2022-10-16T04:05:38;21.10;59.40
35363;DHT22;21463;47.480;8.214;2022-10-16T04:06:44;21.10;59.30
35363;DHT22;21463;47.480;8.214;2022-10-16T04:07:49;21.00;59.30
35363;DHT22;21463;47.480;8.214;2022-10-16T04:08:54;21.10;59.30
35363;DHT22;21463;47.480;8.214;2022-10-16T04:09:59;21.10;59.30
35363;DHT22;21463;47.480;8.214;2022-10-16T04:11:03;21.10;59.30
35363;DHT22;21463;47.480;8.214;2022-10-16T04:12:06;21.10;59.30
35363;DHT22;21463;47.480;8.214;2022-10-16T04:13:11;21.10;59.30
35363;DHT22;21463;47.480;8.214;2022-10-16T04:14:14;21.10;59.30
35363;DHT22;21463;47.480;8.214;2022-10-16T04:15:20;21.10;59.30
35363;DHT22;21463;47.480;8.214;2022-10-16T04:16:27;21.10;59.30
35363;DHT22;21463;47.480;8.214;2022-10-16T04:17:33;21.10;59.30
35363;DHT22;21463;47.480;8.214;2022-10-16T04:18:42;21.10;59.30
35363;DHT22;21463;47.480;8.214;2022-10-16T04:19:49;21.10;59.30
35363;DHT22;21463;47.480;8.214;2022-10-16T04:20:53;21.10;59.30
35363;DHT22;21463;47.480;8.214;2022-10-16T04:21:56;21.10;59.30
35363;DHT22;21463;47.480;8.214;2022-10-16T04:23:03;21.10;59.30
35363;DHT22;21463;47.480;8.214;2022-10-16T04:24:23;21.10;59.30
35363;DHT22;21463;47.480;8.214;2022-10-16T04:25:27;21.10;59.30
35363;DHT22;21463;47.480;8.214;2022-10-16T04:26:31;21.10;59.30
35363;DHT22;21463;47.480;8.214;2022-10-16T04:27:35;21.10;59.30
35363;DHT22;21463;47.480;8.214;2022-10-16T04:28:42;21.10;59.30
35363;DHT22;21463;47.480;8.214;2022-10-16T04:29:47;21.10;59.30
35363;DHT22;21463;47.480;8.214;2022-10-16T04:30:53;21.10;59.30
35363;DHT22;21463;47.480;8.214;2022-10-16T04:32:02;21.20;59.40
35363;DHT22;21463;47.480;8.214;2022-10-16T04:33:05;21.10;59.30
35363;DHT22;21463;47.480;8.214;2022-10-16T04:34:11;21.10;59.30
35363;DHT22;21463;47.480;8.214;2022-10-16T04:35:19;21.10;59.30
35363;DHT22;21463;47.480;8.214;2022-10-16T04:36:24;21.10;59.30
35363;DHT22;21463;47.480;8.214;2022-10-16T04:37:32;21.10;59.30
35363;DHT22;21463;47.480;8.214;2022-10-16T04:38:52;21.10;59.30
35363;DHT22;21463;47.480;8.214;2022-10-16T04:39:59;21.10;59.30
35363;DHT22;21463;47.480;8.214;2022-10-16T04:41:06;21.10;59.30
35363;DHT22;21463;47.480;8.214;2022-10-16T04:42:12;21.10;59.30
35363;DHT22;21463;47.480;8.214;2022-10-16T04:43:17;21.10;59.30
35363;DHT22;21463;47.480;8.214;2022-10-16T04:44:25;21.10;59.30
35363;DHT22;21463;47.480;8.214;2022-10-16T04:45:34;21.10;59.30
35363;DHT22;21463;47.480;8.214;2022-10-16T04:46:38;21.10;59.30
35363;DHT22;21463;47.480;8.214;2022-10-16T04:47:42;21.10;59.30
35363;DHT22;21463;47.480;8.214;2022-10-16T04:48:46;21.20;59.40
35363;DHT22;21463;47.480;8.214;2022-10-16T04:49:56;21.10;59.30
35363;DHT22;21463;47.480;8.214;2022-10-16T04:51:01;21.10;59.30
35363;DHT22;21463;47.480;8.214;2022-10-16T04:52:04;21.10;59.30
35363;DHT22;21463;47.480;8.214;2022-10-16T04:53:09;21.20;59.40
35363;DHT22;21463;47.480;8.214;2022-10-16T04:54:12;21.10;59.30
35363;DHT22;21463;47.480;8.214;2022-10-16T04:55:14;21.10;59.30
35363;DHT22;21463;47.480;8.214;2022-10-16T04:56:20;21.10;59.30
35363;DHT22;21463;47.480;8.214;2022-10-16T04:57:24;21.10;59.30
35363;DHT22;21463;47.480;8.214;2022-10-16T04:58:34;21.10;59.30
35363;DHT22;21463;47.480;8.214;2022-10-16T04:59:41;21.20;59.40
35363;DHT22;21463;47.480;8.214;2022-10-16T05:00:49;21.10;59.30
35363;DHT22;21463;47.480;8.214;2022-10-16T05:01:54;21.10;59.30
35363;DHT22;21463;47.480;8.214;2022-10-16T05:03:02;21.10;59.30
35363;DHT22;21463;47.480;8.214;2022-10-16T05:04:11;21.10;59.30
35363;DHT22;21463;47.480;8.214;2022-10-16T05:05:19;21.10;59.30
35363;DHT22;21463;47.480;8.214;2022-10-16T05:06:24;21.10;59.30
35363;DHT22;21463;47.480;8.214;2022-10-16T05:07:30;21.10;59.30
35363;DHT22;21463;47.480;8.214;2022-10-16T05:08:34;21.10;59.30
35363;DHT22;21463;47.480;8.214;2022-10-16T05:09:41;21.10;59.30
35363;DHT22;21463;47.480;8.214;2022-10-16T05:10:45;21.10;59.30
35363;DHT22;21463;47.480;8.214;2022-10-16T05:11:56;21.10;59.30
35363;DHT22;21463;47.480;8.214;2022-10-16T05:13:01;21.10;59.30
35363;DHT22;21463;47.480;8.214;2022-10-16T05:14:07;21.10;59.30
35363;DHT22;21463;47.480;8.214;2022-10-16T05:15:11;21.10;59.40
35363;DHT22;21463;47.480;8.214;2022-10-16T05:16:16;21.10;59.30
35363;DHT22;21463;47.480;8.214;2022-10-16T05:17:21;21.10;59.30
35363;DHT22;21463;47.480;8.214;2022-10-16T05:18:28;21.10;59.30
35363;DHT22;21463;47.480;8.214;2022-10-16T05:19:52;21.10;59.30
35363;DHT22;21463;47.480;8.214;2022-10-16T05:21:01;21.10;59.30
35363;DHT22;21463;47.480;8.214;2022-10-16T05:22:04;21.10;59.30
35363;DHT22;21463;47.480;8.214;2022-10-16T05:23:10;21.10;59.30
35363;DHT22;21463;47.480;8.214;2022-10-16T05:24:14;21.10;59.30
35363;DHT22;21463;47.480;8.214;2022-10-16T05:25:20;21.10;59.30
35363;DHT22;21463;47.480;8.214;2022-10-16T05:26:25;21.10;59.30
35363;DHT22;21463;47.480;8.214;2022-10-16T05:27:47;21.20;59.40
35363;DHT22;21463;47.480;8.214;2022-10-16T05:28:52;21.10;59.30
35363;DHT22;21463;47.480;8.214;2022-10-16T05:29:55;21.20;59.90
35363;DHT22;21463;47.480;8.214;2022-10-16T05:31:16;21.10;59.30
35363;DHT22;21463;47.480;8.214;2022-10-16T05:32:26;21.10;59.80
35363;DHT22;21463;47.480;8.214;2022-10-16T05:33:34;21.10;59.30
35363;DHT22;21463;47.480;8.214;2022-10-16T05:34:38;21.10;59.30
35363;DHT22;21463;47.480;8.214;2022-10-16T05:35:43;21.10;59.30
35363;DHT22;21463;47.480;8.214;2022-10-16T05:36:49;21.10;59.30
35363;DHT22;21463;47.480;8.214;2022-10-16T05:37:52;21.10;59.30
35363;DHT22;21463;47.480;8.214;2022-10-16T05:38:58;21.10;59.20
35363;DHT22;21463;47.480;8.214;2022-10-16T05:40:23;21.10;59.30
35363;DHT22;21463;47.480;8.214;2022-10-16T05:41:26;21.10;59.30
35363;DHT22;21463;47.480;8.214;2022-10-16T05:42:31;21.10;59.20
35363;DHT22;21463;47.480;8.214;2022-10-16T05:43:34;21.10;59.20
35363;DHT22;21463;47.480;8.214;2022-10-16T05:44:38;21.10;59.30
35363;DHT22;21463;47.480;8.214;2022-10-16T05:45:41;21.20;59.30
35363;DHT22;21463;47.480;8.214;2022-10-16T05:46:46;21.10;59.80
35363;DHT22;21463;47.480;8.214;2022-10-16T05:47:52;21.10;59.20
35363;DHT22;21463;47.480;8.214;2022-10-16T05:48:54;21.10;59.20
35363;DHT22;21463;47.480;8.214;2022-10-16T05:49:57;21.20;59.30
35363;DHT22;21463;47.480;8.214;2022-10-16T05:51:08;21.10;59.30
35363;DHT22;21463;47.480;8.214;2022-10-16T05:52:15;21.10;59.20
35363;DHT22;21463;47.480;8.214;2022-10-16T05:53:35;21.10;59.20
35363;DHT22;21463;47.480;8.214;2022-10-16T05:54:39;21.10;59.20
35363;DHT22;21463;47.480;8.214;2022-10-16T05:55:51;21.10;59.20
35363;DHT22;21463;47.480;8.214;2022-10-16T05:56:56;21.10;59.20
35363;DHT22;21463;47.480;8.214;2022-10-16T05:58:00;21.10;59.20
35363;DHT22;21463;47.480;8.214;2022-10-16T05:59:06;21.10;59.20
35363;DHT22;21463;47.480;8.214;2022-10-16T06:00:11;21.10;59.20
35363;DHT22;21463;47.480;8.214;2022-10-16T06:01:18;21.10;59.20
35363;DHT22;21463;47.480;8.214;2022-10-16T06:02:23;21.10;59.20
35363;DHT22;21463;47.480;8.214;2022-10-16T06:03:28;21.10;59.20
35363;DHT22;21463;47.480;8.214;2022-10-16T06:04:33;21.10;59.20
35363;DHT22;21463;47.480;8.214;2022-10-16T06:05:37;21.10;59.20
35363;DHT22;21463;47.480;8.214;2022-10-16T06:06:41;21.10;59.20
35363;DHT22;21463;47.480;8.214;2022-10-16T06:07:49;21.10;59.20
35363;DHT22;21463;47.480;8.214;2022-10-16T06:08:54;21.10;59.20
35363;DHT22;21463;47.480;8.214;2022-10-16T06:09:59;21.10;59.20
35363;DHT22;21463;47.480;8.214;2022-10-16T06:11:16;21.10;59.20
35363;DHT22;21463;47.480;8.214;2022-10-16T06:12:23;21.10;59.20
35363;DHT22;21463;47.480;8.214;2022-10-16T06:13:31;21.10;59.20
35363;DHT22;21463;47.480;8.214;2022-10-16T06:14:43;21.10;59.20
35363;DHT22;21463;47.480;8.214;2022-10-16T06:15:49;21.10;59.20
35363;DHT22;21463;47.480;8.214;2022-10-16T06:16:53;21.10;59.20
35363;DHT22;21463;47.480;8.214;2022-10-16T06:17:57;21.10;59.20
35363;DHT22;21463;47.480;8.214;2022-10-16T06:19:05;21.10;59.10
35363;DHT22;21463;47.480;8.214;2022-10-16T06:20:11;21.10;59.20
35363;DHT22;21463;47.480;8.214;2022-10-16T06:21:21;21.10;59.20
35363;DHT22;21463;47.480;8.214;2022-10-16T06:22:28;21.10;59.10
35363;DHT22;21463;47.480;8.214;2022-10-16T06:23:32;21.10;59.20
35363;DHT22;21463;47.480;8.214;2022-10-16T06:24:36;21.10;59.10
35363;DHT22;21463;47.480;8.214;2022-10-16T06:25:43;21.10;59.20
35363;DHT22;21463;47.480;8.214;2022-10-16T06:26:47;21.10;59.10
35363;DHT22;21463;47.480;8.214;2022-10-16T06:27:52;21.10;59.10
35363;DHT22;21463;47.480;8.214;2022-10-16T06:28:57;21.10;59.10
35363;DHT22;21463;47.480;8.214;2022-10-16T06:30:01;21.20;59.20
35363;DHT22;21463;47.480;8.214;2022-10-16T06:31:08;21.10;59.10
35363;DHT22;21463;47.480;8.214;2022-10-16T06:32:14;21.10;59.10
35363;DHT22;21463;47.480;8.214;2022-10-16T06:33:17;21.10;59.10
35363;DHT22;21463;47.480;8.214;2022-10-16T06:34:21;21.10;59.10
35363;DHT22;21463;47.480;8.214;2022-10-16T06:35:29;21.10;59.10
35363;DHT22;21463;47.480;8.214;2022-10-16T06:36:34;21.10;59.10
35363;DHT22;21463;47.480;8.214;2022-10-16T06:37:40;21.10;59.10
35363;DHT22;21463;47.480;8.214;2022-10-16T06:38:44;21.10;59.10
35363;DHT22;21463;47.480;8.214;2022-10-16T06:39:47;21.10;59.10
35363;DHT22;21463;47.480;8.214;2022-10-16T06:40:55;21.10;59.10
35363;DHT22;21463;47.480;8.214;2022-10-16T06:42:02;21.10;59.10
35363;DHT22;21463;47.480;8.214;2022-10-16T06:43:11;21.20;59.10
35363;DHT22;21463;47.480;8.214;2022-10-16T06:44:17;21.10;59.10
35363;DHT22;21463;47.480;8.214;2022-10-16T06:45:21;21.10;59.10
35363;DHT22;21463;47.480;8.214;2022-10-16T06:46:28;21.20;59.10
35363;DHT22;21463;47.480;8.214;2022-10-16T06:47:44;21.20;59.10
35363;DHT22;21463;47.480;8.214;2022-10-16T06:48:50;21.10;59.10
35363;DHT22;21463;47.480;8.214;2022-10-16T06:50:14;21.10;59.10
35363;DHT22;21463;47.480;8.214;2022-10-16T06:51:22;21.10;59.00
35363;DHT22;21463;47.480;8.214;2022-10-16T06:52:29;21.10;59.00
35363;DHT22;21463;47.480;8.214;2022-10-16T06:53:37;21.10;59.00
35363;DHT22;21463;47.480;8.214;2022-10-16T06:55:01;21.10;59.00
35363;DHT22;21463;47.480;8.214;2022-10-16T06:57:49;21.10;59.00
35363;DHT22;21463;47.480;8.214;2022-10-16T06:58:54;21.10;59.00
35363;DHT22;21463;47.480;8.214;2022-10-16T06:59:57;21.20;59.10
35363;DHT22;21463;47.480;8.214;2022-10-16T07:01:10;21.10;59.00
35363;DHT22;21463;47.480;8.214;2022-10-16T07:02:15;21.10;59.00
35363;DHT22;21463;47.480;8.214;2022-10-16T07:03:20;21.10;59.00
35363;DHT22;21463;47.480;8.214;2022-10-16T07:04:24;21.10;59.00
35363;DHT22;21463;47.480;8.214;2022-10-16T07:05:27;21.10;59.00
35363;DHT22;21463;47.480;8.214;2022-10-16T07:06:34;21.10;59.00
35363;DHT22;21463;47.480;8.214;2022-10-16T07:07:42;21.10;59.00
35363;DHT22;21463;47.480;8.214;2022-10-16T07:08:47;21.10;59.00
35363;DHT22;21463;47.480;8.214;2022-10-16T07:09:52;21.10;59.00
35363;DHT22;21463;47.480;8.214;2022-10-16T07:11:02;21.10;59.00
35363;DHT22;21463;47.480;8.214;2022-10-16T07:12:08;21.10;59.00
35363;DHT22;21463;47.480;8.214;2022-10-16T07:13:11;21.10;59.00
35363;DHT22;21463;47.480;8.214;2022-10-16T07:14:18;21.10;59.00
35363;DHT22;21463;47.480;8.214;2022-10-16T07:15:25;21.10;58.90
35363;DHT22;21463;47.480;8.214;2022-10-16T07:16:31;21.10;59.00
35363;DHT22;21463;47.480;8.214;2022-10-16T07:17:34;21.10;59.00
35363;DHT22;21463;47.480;8.214;2022-10-16T07:18:38;21.10;58.90
35363;DHT22;21463;47.480;8.214;2022-10-16T07:20:02;21.10;59.00
35363;DHT22;21463;47.480;8.214;2022-10-16T07:21:20;21.10;59.00
35363;DHT22;21463;47.480;8.214;2022-10-16T07:22:28;21.10;59.00
35363;DHT22;21463;47.480;8.214;2022-10-16T07:23:34;21.20;59.00
35363;DHT22;21463;47.480;8.214;2022-10-16T07:24:38;21.10;59.00
35363;DHT22;21463;47.480;8.214;2022-10-16T07:25:41;21.10;59.00
35363;DHT22;21463;47.480;8.214;2022-10-16T07:26:49;21.10;59.00